createdAt,value
2022-09-06T00:00:04.456Z,21.00
2022-09-06T00:00:37.739Z,21.11
2022-09-06T00:01:08.178Z,21.11
2022-09-06T00:01:39.916Z,21.11
2022-09-06T00:02:12.247Z,21.11
2022-09-06T00:02:39.971Z,21.11
2022-09-06T00:03:01.569Z,21.00
2022-09-06T00:03:32.275Z,20.88
2022-09-06T00:04:04.379Z,20.88
2022-09-06T00:04:36.191Z,20.88
2022-09-06T00:05:08.419Z,20.77
2022-09-06T00:05:39.904Z,20.77
2022-09-06T00:06:12.276Z,20.77
2022-09-06T00:06:39.969Z,20.77
2022-09-06T00:07:00.204Z,20.77
2022-09-06T00:07:32.169Z,20.77
2022-09-06T00:08:05.285Z,20.88
2022-09-06T00:08:36.152Z,20.88
2022-09-06T00:09:08.197Z,21.11
2022-09-06T00:09:39.762Z,21.11
2022-09-06T00:10:14.372Z,21.22
2022-09-06T00:10:40.609Z,21.27
2022-09-06T00:11:01.290Z,21.27
2022-09-06T00:11:32.180Z,21.27
2022-09-06T00:12:07.323Z,21.22
2022-09-06T00:12:36.208Z,21.22
2022-09-06T00:13:08.574Z,21.11
2022-09-06T00:13:41.016Z,21.11
2022-09-06T00:14:12.252Z,20.88
2022-09-06T00:14:40.005Z,20.77
2022-09-06T00:15:00.262Z,20.72
2022-09-06T00:15:32.303Z,20.72
2022-09-06T00:16:04.433Z,20.61
2022-09-06T00:16:36.153Z,20.50
2022-09-06T00:17:08.189Z,20.50
2022-09-06T00:17:39.917Z,20.50
2022-09-06T00:18:12.151Z,20.38
2022-09-06T00:18:39.953Z,20.38
2022-09-06T00:19:00.229Z,20.38
2022-09-06T00:19:32.229Z,20.38
2022-09-06T00:20:04.514Z,20.27
2022-09-06T00:20:36.147Z,20.27
2022-09-06T00:21:08.150Z,20.27
2022-09-06T00:21:42.426Z,20.27
2022-09-06T00:22:13.086Z,20.27
2022-09-06T00:22:40.028Z,20.27
2022-09-06T00:23:00.099Z,20.27
2022-09-06T00:23:32.760Z,20.22
2022-09-06T00:24:04.498Z,20.22
2022-09-06T00:24:36.249Z,20.22
2022-09-06T00:25:09.277Z,20.11
2022-09-06T00:25:41.137Z,20.11
2022-09-06T00:26:12.334Z,20.11
2022-09-06T00:26:41.726Z,20.11
2022-09-06T00:27:00.355Z,20.11
2022-09-06T00:27:32.411Z,20.00
2022-09-06T00:28:04.328Z,20.00
2022-09-06T00:28:37.181Z,20.00
2022-09-06T00:29:08.723Z,20.00
2022-09-06T00:29:39.930Z,20.00
2022-09-06T00:30:12.550Z,20.00
2022-09-06T00:30:41.019Z,20.00
2022-09-06T00:31:00.169Z,20.00
2022-09-06T00:31:32.400Z,20.00
2022-09-06T00:32:04.481Z,20.00
2022-09-06T00:32:36.130Z,20.00
2022-09-06T00:33:08.454Z,20.00
2022-09-06T00:33:41.439Z,20.00
2022-09-06T00:34:12.176Z,20.11
2022-09-06T00:34:39.929Z,20.11
2022-09-06T00:35:01.023Z,20.11
2022-09-06T00:35:32.278Z,20.11
2022-09-06T00:36:04.545Z,20.11
2022-09-06T00:36:36.176Z,20.11
2022-09-06T00:37:08.153Z,20.11
2022-09-06T00:37:40.017Z,20.11
2022-09-06T00:38:12.260Z,20.11
2022-09-06T00:38:40.064Z,20.11
2022-09-06T00:39:00.152Z,20.11
2022-09-06T00:39:32.210Z,20.11
2022-09-06T00:40:04.712Z,20.00
2022-09-06T00:40:36.395Z,20.00
2022-09-06T00:41:08.132Z,20.00
2022-09-06T00:41:39.907Z,20.00
2022-09-06T00:42:12.224Z,20.00
2022-09-06T00:42:39.876Z,20.00
2022-09-06T00:43:00.170Z,20.00
2022-09-06T00:43:32.181Z,20.00
2022-09-06T00:44:05.295Z,20.00
2022-09-06T00:44:36.130Z,20.00
2022-09-06T00:45:08.968Z,20.00
2022-09-06T00:45:39.938Z,20.00
2022-09-06T00:46:12.328Z,19.88
2022-09-06T00:46:42.087Z,19.88
2022-09-06T00:47:01.065Z,19.88
2022-09-06T00:47:32.160Z,19.88
2022-09-06T00:48:04.195Z,19.88
2022-09-06T00:48:37.209Z,19.88
2022-09-06T00:49:08.746Z,20.00
2022-09-06T00:49:41.493Z,20.00
2022-09-06T00:50:12.122Z,20.11
2022-09-06T00:50:39.984Z,20.11
2022-09-06T00:51:00.150Z,20.22
2022-09-06T00:51:32.148Z,20.27
2022-09-06T00:52:04.259Z,20.38
2022-09-06T00:52:36.088Z,20.50
2022-09-06T00:53:08.191Z,20.61
2022-09-06T00:53:39.949Z,20.61
2022-09-06T00:54:12.885Z,20.72
2022-09-06T00:54:45.475Z,20.72
2022-09-06T00:55:16.173Z,20.72
2022-09-06T00:55:40.004Z,20.72
2022-09-06T00:56:04.159Z,20.72
2022-09-06T00:56:36.149Z,20.72
2022-09-06T00:57:08.152Z,20.61
2022-09-06T00:57:41.937Z,20.61
2022-09-06T00:58:12.158Z,20.61
2022-09-06T00:58:40.863Z,20.61
2022-09-06T00:59:00.059Z,20.61
2022-09-06T00:59:32.181Z,20.61
2022-09-06T01:00:05.118Z,20.50
2022-09-06T01:00:37.497Z,20.50
2022-09-06T01:01:08.186Z,20.50
2022-09-06T01:01:40.344Z,20.50
2022-09-06T01:02:15.082Z,20.38
2022-09-06T01:02:40.229Z,20.38
2022-09-06T01:03:01.025Z,20.38
2022-09-06T01:03:32.218Z,20.38
2022-09-06T01:04:04.905Z,20.38
2022-09-06T01:04:37.397Z,20.38
2022-09-06T01:05:08.162Z,20.38
2022-09-06T01:05:40.072Z,20.38
2022-09-06T01:06:12.196Z,20.38
2022-09-06T01:06:40.683Z,20.38
2022-09-06T01:07:00.289Z,20.38
2022-09-06T01:07:32.184Z,20.27
2022-09-06T01:08:05.573Z,20.27
2022-09-06T01:08:36.163Z,20.27
2022-09-06T01:09:08.302Z,20.22
2022-09-06T01:09:40.831Z,20.22
2022-09-06T01:10:13.040Z,20.22
2022-09-06T01:10:39.912Z,20.22
2022-09-06T01:11:00.209Z,20.22
2022-09-06T01:11:33.512Z,20.11
2022-09-06T01:12:04.545Z,20.11
2022-09-06T01:12:36.233Z,20.00
2022-09-06T01:13:08.584Z,20.00
2022-09-06T01:13:40.923Z,20.00
2022-09-06T01:14:12.084Z,20.00
2022-09-06T01:14:40.027Z,20.00
2022-09-06T01:15:00.206Z,19.88
2022-09-06T01:15:32.281Z,19.88
2022-09-06T01:16:04.404Z,19.88
2022-09-06T01:16:36.308Z,19.88
2022-09-06T01:17:08.120Z,19.77
2022-09-06T01:17:40.013Z,19.77
2022-09-06T01:18:12.158Z,19.77
2022-09-06T01:18:40.412Z,19.77
2022-09-06T01:19:00.189Z,19.72
2022-09-06T01:19:32.211Z,19.72
2022-09-06T01:20:04.135Z,19.61
2022-09-06T01:20:36.188Z,19.61
2022-09-06T01:21:08.237Z,19.61
2022-09-06T01:21:41.447Z,19.61
2022-09-06T01:22:12.083Z,19.61
2022-09-06T01:22:39.907Z,19.61
2022-09-06T01:23:00.112Z,19.61
2022-09-06T01:23:32.099Z,19.61
2022-09-06T01:24:04.173Z,19.50
2022-09-06T01:24:36.043Z,19.50
2022-09-06T01:25:08.088Z,19.38
2022-09-06T01:25:41.444Z,19.38
2022-09-06T01:26:13.132Z,19.38
2022-09-06T01:26:39.889Z,19.38
2022-09-06T01:27:00.052Z,19.38
2022-09-06T01:27:34.963Z,19.38
2022-09-06T01:28:04.145Z,19.38
2022-09-06T01:28:36.097Z,19.38
2022-09-06T01:29:09.040Z,19.38
2022-09-06T01:29:40.228Z,19.38
2022-09-06T01:30:13.050Z,19.38
2022-09-06T01:30:40.069Z,19.38
2022-09-06T01:31:00.116Z,19.38
2022-09-06T01:31:32.100Z,19.50
2022-09-06T01:32:04.116Z,19.61
2022-09-06T01:32:36.790Z,19.61
2022-09-06T01:33:08.119Z,19.61
2022-09-06T01:33:39.947Z,19.61
2022-09-06T01:34:12.087Z,19.61
2022-09-06T01:34:39.968Z,19.72
2022-09-06T01:35:00.020Z,19.72
2022-09-06T01:35:32.094Z,19.77
2022-09-06T01:36:05.538Z,19.88
2022-09-06T01:36:39.783Z,19.88
2022-09-06T01:37:10.425Z,19.88
2022-09-06T01:37:40.631Z,19.88
2022-09-06T01:38:12.081Z,19.88
2022-09-06T01:38:40.825Z,19.88
2022-09-06T01:39:00.041Z,19.88
2022-09-06T01:39:32.056Z,19.88
2022-09-06T01:40:05.313Z,19.88
2022-09-06T01:40:36.152Z,19.88
2022-09-06T01:41:08.200Z,19.88
2022-09-06T01:41:39.961Z,19.88
2022-09-06T01:42:12.133Z,19.88
2022-09-06T01:42:39.987Z,19.88
2022-09-06T01:43:00.138Z,19.72
2022-09-06T01:43:32.026Z,19.61
2022-09-06T01:44:05.672Z,19.38
2022-09-06T01:44:37.552Z,19.27
2022-09-06T01:45:09.342Z,19.11
2022-09-06T01:45:40.025Z,19.00
2022-09-06T01:46:12.155Z,18.77
2022-09-06T01:46:40.742Z,18.72
2022-09-06T01:47:00.186Z,18.50
2022-09-06T01:47:32.079Z,18.38
2022-09-06T01:48:05.242Z,18.27
2022-09-06T01:48:36.099Z,18.11
2022-09-06T01:49:08.174Z,18.11
2022-09-06T01:49:39.917Z,18.00
2022-09-06T01:50:13.081Z,18.00
2022-09-06T01:50:40.264Z,18.00
2022-09-06T01:51:00.966Z,18.00
2022-09-06T01:51:32.154Z,18.11
2022-09-06T01:52:05.622Z,18.11
2022-09-06T01:52:36.023Z,18.27
2022-09-06T01:53:08.712Z,18.27
2022-09-06T01:53:41.694Z,18.27
2022-09-06T01:54:13.178Z,18.38
2022-09-06T01:54:39.913Z,18.38
2022-09-06T01:55:00.054Z,18.38
2022-09-06T01:55:33.180Z,18.38
2022-09-06T01:56:04.045Z,18.38
2022-09-06T01:56:37.447Z,18.38
2022-09-06T01:57:08.205Z,18.38
2022-09-06T01:57:42.008Z,18.38
2022-09-06T01:58:12.811Z,18.38
2022-09-06T01:58:40.344Z,18.50
2022-09-06T01:59:00.058Z,18.50
2022-09-06T01:59:32.232Z,18.61
2022-09-06T02:00:05.777Z,18.72
2022-09-06T02:00:37.707Z,18.77
2022-09-06T02:01:08.175Z,18.88
2022-09-06T02:01:39.986Z,18.88
2022-09-06T02:02:15.748Z,18.88
2022-09-06T02:02:41.521Z,19.00
2022-09-06T02:03:00.870Z,19.00
2022-09-06T02:03:32.060Z,19.00
2022-09-06T02:04:04.067Z,19.11
2022-09-06T02:04:36.085Z,19.11
2022-09-06T02:05:09.082Z,19.11
2022-09-06T02:05:41.220Z,19.11
2022-09-06T02:06:12.089Z,19.11
2022-09-06T02:06:39.977Z,19.22
2022-09-06T02:07:00.922Z,19.22
2022-09-06T02:07:32.055Z,19.22
2022-09-06T02:08:04.845Z,19.22
2022-09-06T02:08:37.370Z,19.22
2022-09-06T02:09:08.176Z,19.22
2022-09-06T02:09:39.953Z,19.27
2022-09-06T02:10:12.066Z,19.27
2022-09-06T02:10:40.315Z,19.27
2022-09-06T02:11:00.083Z,19.27
2022-09-06T02:11:32.041Z,19.27
2022-09-06T02:12:04.347Z,19.27
2022-09-06T02:12:36.101Z,19.27
2022-09-06T02:13:08.263Z,19.27
2022-09-06T02:13:39.920Z,19.27
2022-09-06T02:14:12.074Z,19.27
2022-09-06T02:14:40.664Z,19.27
2022-09-06T02:15:01.622Z,19.27
2022-09-06T02:15:34.216Z,19.27
2022-09-06T02:16:04.011Z,19.38
2022-09-06T02:16:36.157Z,19.38
2022-09-06T02:17:08.231Z,19.38
2022-09-06T02:17:39.904Z,19.38
2022-09-06T02:18:12.019Z,19.27
2022-09-06T02:18:39.951Z,19.27
2022-09-06T02:19:01.938Z,19.27
2022-09-06T02:19:32.130Z,19.27
2022-09-06T02:20:04.237Z,19.27
2022-09-06T02:20:36.122Z,19.27
2022-09-06T02:21:08.370Z,19.27
2022-09-06T02:21:39.985Z,19.27
2022-09-06T02:22:12.255Z,19.27
2022-09-06T02:22:39.907Z,19.27
2022-09-06T02:23:00.792Z,19.27
2022-09-06T02:23:32.641Z,19.27
2022-09-06T02:24:04.110Z,19.27
2022-09-06T02:24:37.685Z,19.27
2022-09-06T02:25:08.174Z,19.27
2022-09-06T02:25:39.967Z,19.27
2022-09-06T02:26:12.235Z,19.38
2022-09-06T02:26:39.919Z,19.38
2022-09-06T02:27:00.021Z,19.38
2022-09-06T02:27:33.059Z,19.38
2022-09-06T02:28:04.036Z,19.38
2022-09-06T02:28:37.071Z,19.38
2022-09-06T02:29:08.141Z,19.38
2022-09-06T02:29:39.852Z,19.38
2022-09-06T02:30:12.615Z,19.38
2022-09-06T02:30:40.073Z,19.38
2022-09-06T02:31:00.215Z,19.50
2022-09-06T02:31:34.509Z,19.50
2022-09-06T02:32:04.099Z,19.50
2022-09-06T02:32:36.114Z,19.50
2022-09-06T02:33:08.164Z,19.61
2022-09-06T02:33:41.331Z,19.61
2022-09-06T02:34:12.090Z,19.61
2022-09-06T02:34:39.956Z,19.61
2022-09-06T02:35:00.012Z,19.61
2022-09-06T02:35:32.179Z,19.61
2022-09-06T02:36:04.108Z,19.61
2022-09-06T02:36:36.029Z,19.72
2022-09-06T02:37:08.328Z,19.77
2022-09-06T02:37:39.994Z,19.77
2022-09-06T02:38:12.049Z,19.77
2022-09-06T02:38:39.928Z,19.77
2022-09-06T02:39:00.016Z,19.77
2022-09-06T02:39:32.121Z,19.77
2022-09-06T02:40:04.100Z,19.77
2022-09-06T02:40:36.076Z,19.88
2022-09-06T02:41:08.104Z,19.88
2022-09-06T02:41:39.961Z,19.88
2022-09-06T02:42:12.041Z,19.88
2022-09-06T02:42:42.888Z,20.00
2022-09-06T02:43:00.005Z,20.00
2022-09-06T02:43:32.023Z,20.00
2022-09-06T02:44:04.874Z,20.00
2022-09-06T02:44:36.795Z,20.00
2022-09-06T02:45:08.189Z,20.00
2022-09-06T02:45:39.993Z,20.00
2022-09-06T02:46:12.178Z,19.88
2022-09-06T02:46:39.985Z,19.88
2022-09-06T02:47:00.017Z,19.77
2022-09-06T02:47:32.164Z,19.77
2022-09-06T02:48:04.034Z,19.77
2022-09-06T02:48:36.011Z,19.77
2022-09-06T02:49:08.594Z,19.77
2022-09-06T02:49:40.116Z,19.77
2022-09-06T02:50:11.996Z,19.77
2022-09-06T02:50:40.739Z,19.77
2022-09-06T02:50:59.895Z,19.77
2022-09-06T02:51:32.923Z,19.77
2022-09-06T02:52:03.956Z,19.77
2022-09-06T02:52:36.020Z,19.77
2022-09-06T02:53:08.706Z,19.72
2022-09-06T02:53:42.411Z,19.72
2022-09-06T02:54:12.578Z,19.72
2022-09-06T02:54:40.773Z,19.72
2022-09-06T02:54:59.987Z,19.72
2022-09-06T02:55:32.056Z,19.72
2022-09-06T02:56:04.040Z,19.72
2022-09-06T02:56:35.991Z,19.72
2022-09-06T02:57:08.250Z,19.72
2022-09-06T02:57:40.010Z,19.72
2022-09-06T02:58:11.964Z,19.61
2022-09-06T02:58:40.689Z,19.61
2022-09-06T02:59:00.002Z,19.61
2022-09-06T02:59:32.008Z,19.61
2022-09-06T03:00:03.984Z,19.61
2022-09-06T03:00:36.414Z,19.61
2022-09-06T03:01:08.220Z,19.61
2022-09-06T03:01:41.609Z,19.61
2022-09-06T03:02:12.150Z,19.61
2022-09-06T03:02:40.008Z,19.61
2022-09-06T03:03:00.024Z,19.61
2022-09-06T03:03:32.044Z,19.61
2022-09-06T03:04:04.005Z,19.61
2022-09-06T03:04:36.243Z,19.61
2022-09-06T03:05:08.169Z,19.61
2022-09-06T03:05:40.988Z,19.61
2022-09-06T03:06:11.984Z,19.61
2022-09-06T03:06:40.078Z,19.61
2022-09-06T03:07:00.033Z,19.61
2022-09-06T03:07:32.022Z,19.61
2022-09-06T03:08:06.008Z,19.72
2022-09-06T03:08:35.993Z,19.72
2022-09-06T03:09:08.257Z,19.72
2022-09-06T03:09:39.900Z,19.72
2022-09-06T03:10:12.250Z,19.72
2022-09-06T03:10:39.967Z,19.72
2022-09-06T03:10:59.996Z,19.72
2022-09-06T03:11:32.104Z,19.72
2022-09-06T03:12:04.113Z,19.72
2022-09-06T03:12:36.076Z,19.72
2022-09-06T03:13:08.733Z,19.72
2022-09-06T03:13:40.242Z,19.72
2022-09-06T03:14:13.098Z,19.72
2022-09-06T03:14:39.927Z,19.72
2022-09-06T03:15:00.102Z,19.72
2022-09-06T03:15:32.097Z,19.77
2022-09-06T03:16:03.953Z,19.77
2022-09-06T03:16:36.288Z,19.77
2022-09-06T03:17:08.528Z,19.77
2022-09-06T03:17:39.948Z,19.72
2022-09-06T03:18:12.147Z,19.72
2022-09-06T03:18:40.058Z,19.72
2022-09-06T03:18:59.972Z,19.72
2022-09-06T03:19:32.583Z,19.72
2022-09-06T03:20:04.069Z,19.72
2022-09-06T03:20:37.199Z,19.72
2022-09-06T03:21:08.164Z,19.61
2022-09-06T03:21:39.958Z,19.61
2022-09-06T03:22:12.063Z,19.38
2022-09-06T03:22:39.954Z,19.38
2022-09-06T03:23:00.982Z,19.27
2022-09-06T03:23:32.004Z,19.22
2022-09-06T03:24:03.979Z,19.11
2022-09-06T03:24:36.984Z,19.00
2022-09-06T03:25:08.177Z,19.00
2022-09-06T03:25:40.297Z,18.88
2022-09-06T03:26:12.165Z,18.77
2022-09-06T03:26:40.882Z,18.77
2022-09-06T03:27:00.091Z,18.77
2022-09-06T03:27:32.100Z,18.72
2022-09-06T03:28:04.020Z,18.61
2022-09-06T03:28:36.087Z,18.50
2022-09-06T03:29:08.202Z,18.38
2022-09-06T03:29:40.550Z,18.38
2022-09-06T03:30:12.315Z,18.27
2022-09-06T03:30:40.016Z,18.27
2022-09-06T03:31:00.164Z,18.22
2022-09-06T03:31:32.100Z,18.11
2022-09-06T03:32:05.471Z,18.00
2022-09-06T03:32:37.673Z,18.00
2022-09-06T03:33:08.174Z,17.88
2022-09-06T03:33:39.970Z,17.77
2022-09-06T03:34:12.117Z,17.77
2022-09-06T03:34:39.975Z,17.77
2022-09-06T03:35:00.038Z,17.72
2022-09-06T03:35:32.105Z,17.72
2022-09-06T03:36:04.028Z,17.72
2022-09-06T03:36:36.301Z,17.72
2022-09-06T03:37:08.139Z,17.72
2022-09-06T03:37:39.952Z,17.61
2022-09-06T03:38:13.229Z,17.61
2022-09-06T03:38:41.086Z,17.61
2022-09-06T03:39:00.093Z,17.61
2022-09-06T03:39:32.118Z,17.72
2022-09-06T03:40:04.981Z,17.72
2022-09-06T03:40:39.633Z,17.72
2022-09-06T03:41:08.203Z,17.72
2022-09-06T03:41:40.029Z,17.72
2022-09-06T03:42:12.083Z,17.61
2022-09-06T03:42:40.015Z,17.61
2022-09-06T03:43:00.092Z,17.50
2022-09-06T03:43:31.998Z,17.50
2022-09-06T03:44:04.708Z,17.50
2022-09-06T03:44:36.044Z,17.50
2022-09-06T03:45:09.052Z,17.50
2022-09-06T03:45:41.861Z,17.50
2022-09-06T03:46:12.145Z,17.50
2022-09-06T03:46:39.959Z,17.50
2022-09-06T03:47:00.012Z,17.50
2022-09-06T03:47:32.341Z,17.50
2022-09-06T03:48:04.102Z,17.38
2022-09-06T03:48:36.029Z,17.38
2022-09-06T03:49:08.124Z,17.38
2022-09-06T03:49:39.899Z,17.38
2022-09-06T03:50:12.839Z,17.38
2022-09-06T03:50:41.097Z,17.38
2022-09-06T03:51:05.687Z,17.38
2022-09-06T03:51:31.988Z,17.38
2022-09-06T03:52:05.270Z,17.27
2022-09-06T03:52:36.025Z,17.27
2022-09-06T03:53:08.433Z,17.27
2022-09-06T03:53:41.171Z,17.27
2022-09-06T03:54:12.082Z,17.38
2022-09-06T03:54:40.020Z,17.38
2022-09-06T03:54:59.981Z,17.38
2022-09-06T03:55:32.034Z,17.38
2022-09-06T03:56:03.937Z,17.38
2022-09-06T03:56:36.104Z,17.38
2022-09-06T03:57:08.185Z,17.50
2022-09-06T03:57:39.967Z,17.50
2022-09-06T03:58:11.963Z,17.50
2022-09-06T03:58:43.700Z,17.50
2022-09-06T03:58:59.964Z,17.50
2022-09-06T03:59:33.067Z,17.50
2022-09-06T04:00:05.389Z,17.50
2022-09-06T04:00:36.086Z,17.38
2022-09-06T04:01:08.309Z,17.38
2022-09-06T04:01:40.007Z,17.38
2022-09-06T04:02:14.073Z,17.38
2022-09-06T04:02:40.354Z,17.38
2022-09-06T04:03:01.749Z,17.38
2022-09-06T04:03:32.036Z,17.38
2022-09-06T04:04:04.185Z,17.38
2022-09-06T04:04:36.222Z,17.38
2022-09-06T04:05:09.060Z,17.38
2022-09-06T04:05:40.038Z,17.38
2022-09-06T04:06:12.348Z,17.27
2022-09-06T04:06:41.388Z,17.38
2022-09-06T04:07:00.984Z,17.38
2022-09-06T04:07:31.981Z,17.27
2022-09-06T04:08:03.969Z,17.27
2022-09-06T04:08:36.058Z,17.27
2022-09-06T04:09:08.347Z,17.38
2022-09-06T04:09:39.871Z,17.38
2022-09-06T04:10:12.016Z,17.38
2022-09-06T04:10:39.996Z,17.38
2022-09-06T04:10:59.970Z,17.38
2022-09-06T04:11:32.066Z,17.38
2022-09-06T04:12:05.502Z,17.38
2022-09-06T04:12:36.065Z,17.50
2022-09-06T04:13:08.538Z,17.50
2022-09-06T04:13:41.478Z,17.50
2022-09-06T04:14:12.197Z,17.61
2022-09-06T04:14:40.018Z,17.61
2022-09-06T04:15:00.542Z,17.61
2022-09-06T04:15:32.069Z,17.61
2022-09-06T04:16:04.126Z,17.61
2022-09-06T04:16:36.144Z,17.61
2022-09-06T04:17:08.106Z,17.61
2022-09-06T04:17:40.887Z,17.61
2022-09-06T04:18:12.004Z,17.61
2022-09-06T04:18:39.953Z,17.72
2022-09-06T04:19:01.116Z,17.72
2022-09-06T04:19:31.858Z,17.72
2022-09-06T04:20:03.859Z,17.72
2022-09-06T04:20:38.141Z,17.72
2022-09-06T04:21:08.243Z,17.72
2022-09-06T04:21:39.999Z,17.72
2022-09-06T04:22:12.134Z,17.72
2022-09-06T04:22:39.939Z,17.72
2022-09-06T04:23:00.873Z,17.72
2022-09-06T04:23:35.231Z,17.72
2022-09-06T04:24:06.537Z,17.72
2022-09-06T04:24:36.110Z,17.72
2022-09-06T04:25:09.031Z,17.72
2022-09-06T04:25:43.095Z,17.72
2022-09-06T04:26:11.960Z,17.72
2022-09-06T04:26:39.986Z,17.72
2022-09-06T04:27:00.096Z,17.72
2022-09-06T04:27:32.678Z,17.61
2022-09-06T04:28:04.017Z,17.61
2022-09-06T04:28:36.089Z,17.61
2022-09-06T04:29:08.529Z,17.61
2022-09-06T04:29:40.844Z,17.50
2022-09-06T04:30:12.625Z,17.38
2022-09-06T04:30:42.105Z,17.38
2022-09-06T04:31:04.339Z,17.38
2022-09-06T04:31:38.126Z,17.38
2022-09-06T04:32:04.014Z,17.38
2022-09-06T04:32:36.869Z,17.38
2022-09-06T04:33:09.028Z,17.38
2022-09-06T04:33:39.905Z,17.38
2022-09-06T04:34:12.856Z,17.38
2022-09-06T04:34:40.013Z,17.38
2022-09-06T04:35:00.200Z,17.38
2022-09-06T04:35:33.100Z,17.38
2022-09-06T04:36:03.944Z,17.50
2022-09-06T04:36:36.150Z,17.50
2022-09-06T04:37:08.188Z,17.61
2022-09-06T04:37:40.621Z,17.61
2022-09-06T04:38:12.096Z,17.61
2022-09-06T04:38:40.832Z,17.61
2022-09-06T04:38:59.915Z,17.61
2022-09-06T04:39:32.960Z,17.61
2022-09-06T04:40:05.076Z,17.61
2022-09-06T04:40:36.174Z,17.61
2022-09-06T04:41:08.188Z,17.61
2022-09-06T04:41:40.035Z,17.61
2022-09-06T04:42:11.992Z,17.72
2022-09-06T04:42:40.989Z,17.72
2022-09-06T04:42:59.936Z,17.77
2022-09-06T04:43:31.984Z,17.77
2022-09-06T04:44:04.925Z,17.77
2022-09-06T04:44:36.246Z,17.77
2022-09-06T04:45:08.158Z,17.77
2022-09-06T04:45:40.267Z,17.77
2022-09-06T04:46:12.218Z,17.77
2022-09-06T04:46:41.263Z,17.77
2022-09-06T04:47:04.329Z,17.77
2022-09-06T04:47:31.964Z,17.77
2022-09-06T04:48:06.091Z,17.77
2022-09-06T04:48:36.325Z,17.77
2022-09-06T04:49:08.267Z,17.72
2022-09-06T04:49:39.943Z,17.72
2022-09-06T04:50:11.981Z,17.72
2022-09-06T04:50:41.597Z,17.72
2022-09-06T04:50:59.974Z,17.72
2022-09-06T04:51:32.090Z,17.72
2022-09-06T04:52:03.920Z,17.61
2022-09-06T04:52:36.275Z,17.61
2022-09-06T04:53:08.552Z,17.50
2022-09-06T04:53:40.104Z,17.50
2022-09-06T04:54:12.186Z,17.38
2022-09-06T04:54:40.047Z,17.38
2022-09-06T04:54:59.939Z,17.38
2022-09-06T04:55:31.943Z,17.27
2022-09-06T04:56:04.057Z,17.27
2022-09-06T04:56:36.263Z,17.27
2022-09-06T04:57:08.064Z,17.27
2022-09-06T04:57:45.052Z,17.27
2022-09-06T04:58:12.716Z,17.27
2022-09-06T04:58:41.728Z,17.27
2022-09-06T04:59:00.081Z,17.27
2022-09-06T04:59:37.740Z,17.27
2022-09-06T05:00:04.055Z,17.38
2022-09-06T05:00:36.529Z,17.50
2022-09-06T05:01:08.407Z,17.61
2022-09-06T05:01:40.078Z,17.61
2022-09-06T05:02:12.250Z,17.61
2022-09-06T05:02:40.340Z,17.61
2022-09-06T05:03:00.361Z,17.61
2022-09-06T05:03:32.084Z,17.61
2022-09-06T05:04:04.037Z,17.61
2022-09-06T05:04:37.205Z,17.50
2022-09-06T05:05:08.325Z,17.50
2022-09-06T05:05:40.225Z,17.50
2022-09-06T05:06:12.145Z,17.50
2022-09-06T05:06:40.037Z,17.61
2022-09-06T05:07:00.096Z,17.61
2022-09-06T05:07:32.907Z,17.61
2022-09-06T05:08:04.475Z,17.61
2022-09-06T05:08:37.201Z,17.61
2022-09-06T05:09:08.501Z,17.61
2022-09-06T05:09:39.843Z,17.61
2022-09-06T05:10:12.491Z,17.72
2022-09-06T05:10:40.275Z,17.72
2022-09-06T05:11:00.158Z,17.72
2022-09-06T05:11:32.216Z,17.77
2022-09-06T05:12:04.103Z,17.77
2022-09-06T05:12:39.776Z,17.77
2022-09-06T05:13:08.642Z,17.77
2022-09-06T05:13:40.133Z,17.77
2022-09-06T05:14:12.049Z,17.88
2022-09-06T05:14:40.046Z,17.88
2022-09-06T05:15:00.179Z,17.88
2022-09-06T05:15:32.355Z,17.88
2022-09-06T05:16:04.376Z,18.00
2022-09-06T05:16:36.499Z,18.00
2022-09-06T05:17:08.433Z,18.00
2022-09-06T05:17:41.122Z,18.00
2022-09-06T05:18:16.129Z,17.88
2022-09-06T05:18:40.133Z,17.88
2022-09-06T05:19:00.172Z,18.00
2022-09-06T05:19:33.046Z,18.00
2022-09-06T05:20:05.568Z,18.00
2022-09-06T05:20:36.602Z,18.00
2022-09-06T05:21:08.303Z,18.11
2022-09-06T05:21:41.604Z,18.22
2022-09-06T05:22:12.200Z,18.22
2022-09-06T05:22:40.240Z,18.22
2022-09-06T05:23:00.229Z,18.22
2022-09-06T05:23:32.661Z,18.22
2022-09-06T05:24:04.062Z,18.11
2022-09-06T05:24:36.456Z,18.00
2022-09-06T05:25:08.274Z,17.77
2022-09-06T05:25:40.266Z,17.77
2022-09-06T05:26:12.237Z,17.77
2022-09-06T05:26:40.812Z,17.72
2022-09-06T05:27:00.264Z,17.72
2022-09-06T05:27:32.116Z,17.72
2022-09-06T05:28:04.334Z,17.72
2022-09-06T05:28:36.937Z,17.61
2022-09-06T05:29:08.521Z,17.61
2022-09-06T05:29:40.164Z,17.61
2022-09-06T05:30:12.561Z,17.50
2022-09-06T05:30:41.021Z,17.38
2022-09-06T05:31:00.189Z,17.38
2022-09-06T05:31:32.178Z,17.38
2022-09-06T05:32:04.148Z,17.38
2022-09-06T05:32:36.389Z,17.38
2022-09-06T05:33:08.274Z,17.27
2022-09-06T05:33:41.620Z,17.27
2022-09-06T05:34:13.052Z,17.27
2022-09-06T05:34:40.127Z,17.27
2022-09-06T05:35:00.177Z,17.27
2022-09-06T05:35:32.102Z,17.22
2022-09-06T05:36:04.037Z,17.22
2022-09-06T05:36:36.373Z,17.22
2022-09-06T05:37:08.232Z,17.22
2022-09-06T05:37:40.078Z,17.11
2022-09-06T05:38:12.074Z,17.11
2022-09-06T05:38:40.121Z,17.11
2022-09-06T05:39:16.623Z,17.00
2022-09-06T05:39:40.134Z,17.00
2022-09-06T05:40:05.223Z,17.00
2022-09-06T05:40:36.363Z,17.00
2022-09-06T05:41:08.247Z,17.00
2022-09-06T05:41:40.176Z,17.00
2022-09-06T05:42:15.937Z,17.00
2022-09-06T05:42:40.106Z,17.00
2022-09-06T05:43:17.355Z,17.00
2022-09-06T05:43:40.134Z,17.00
2022-09-06T05:44:07.159Z,17.00
2022-09-06T05:44:36.326Z,17.00
2022-09-06T05:45:08.937Z,16.88
2022-09-06T05:45:41.198Z,16.88
2022-09-06T05:46:13.204Z,16.88
2022-09-06T05:46:40.476Z,16.88
2022-09-06T05:47:01.188Z,16.88
2022-09-06T05:47:32.187Z,16.88
2022-09-06T05:48:07.741Z,16.88
2022-09-06T05:48:37.291Z,16.88
2022-09-06T05:49:09.903Z,16.88
2022-09-06T05:49:41.148Z,16.88
2022-09-06T05:50:12.151Z,16.88
2022-09-06T05:50:41.039Z,16.88
2022-09-06T05:51:00.122Z,16.88
2022-09-06T05:51:32.072Z,16.88
2022-09-06T05:52:04.011Z,16.88
2022-09-06T05:52:36.527Z,16.88
2022-09-06T05:53:09.070Z,16.88
2022-09-06T05:53:40.252Z,16.88
2022-09-06T05:54:12.680Z,16.88
2022-09-06T05:54:40.182Z,16.88
2022-09-06T05:55:00.104Z,16.88
2022-09-06T05:55:32.913Z,16.88
2022-09-06T05:56:04.162Z,16.88
2022-09-06T05:56:36.490Z,16.88
2022-09-06T05:57:08.353Z,16.88
2022-09-06T05:57:40.236Z,17.00
2022-09-06T05:58:14.317Z,17.00
2022-09-06T05:58:41.094Z,17.00
2022-09-06T05:59:00.253Z,17.00
2022-09-06T05:59:32.070Z,17.00
2022-09-06T06:00:04.639Z,17.00
2022-09-06T06:00:36.572Z,17.00
2022-09-06T06:01:08.444Z,17.00
2022-09-06T06:01:40.798Z,17.00
2022-09-06T06:02:12.090Z,17.00
2022-09-06T06:02:41.180Z,17.11
2022-09-06T06:03:00.088Z,17.11
2022-09-06T06:03:32.149Z,17.11
2022-09-06T06:04:04.274Z,17.11
2022-09-06T06:04:36.392Z,17.11
2022-09-06T06:05:08.292Z,17.11
2022-09-06T06:05:40.351Z,17.11
2022-09-06T06:06:12.060Z,17.11
2022-09-06T06:06:40.163Z,17.11
2022-09-06T06:07:00.093Z,17.11
2022-09-06T06:07:32.062Z,17.11
2022-09-06T06:08:03.987Z,17.11
2022-09-06T06:08:36.420Z,17.11
2022-09-06T06:09:08.270Z,17.11
2022-09-06T06:09:40.309Z,17.11
2022-09-06T06:10:12.234Z,17.11
2022-09-06T06:10:40.208Z,17.11
2022-09-06T06:11:00.772Z,17.11
2022-09-06T06:11:32.937Z,17.11
2022-09-06T06:12:05.144Z,17.11
2022-09-06T06:12:36.445Z,17.11
2022-09-06T06:13:08.661Z,17.11
2022-09-06T06:13:41.176Z,17.11
2022-09-06T06:14:12.082Z,17.11
2022-09-06T06:14:40.382Z,17.11
2022-09-06T06:15:00.003Z,17.11
2022-09-06T06:15:32.123Z,17.11
2022-09-06T06:16:05.154Z,17.11
2022-09-06T06:16:36.334Z,17.11
2022-09-06T06:17:10.110Z,17.11
2022-09-06T06:17:40.194Z,17.11
2022-09-06T06:18:12.274Z,17.11
2022-09-06T06:18:40.603Z,17.11
2022-09-06T06:19:00.002Z,17.11
2022-09-06T06:19:32.680Z,17.11
2022-09-06T06:20:04.017Z,17.11
2022-09-06T06:20:36.429Z,17.11
2022-09-06T06:21:08.112Z,17.11
2022-09-06T06:21:40.118Z,17.11
2022-09-06T06:22:13.467Z,17.11
2022-09-06T06:22:40.114Z,17.11
2022-09-06T06:23:00.076Z,17.11
2022-09-06T06:23:32.284Z,17.11
2022-09-06T06:24:04.005Z,17.11
2022-09-06T06:24:36.803Z,17.11
2022-09-06T06:25:08.305Z,17.11
2022-09-06T06:25:41.123Z,17.11
2022-09-06T06:26:12.065Z,17.11